Time;durP1;ratioP1;P1;durP2;ratioP2;P2;SDS_P1;SDS_P2;PMS_P1;PMS_P2;Temp;Humidity;BMP_temperature;BMP_pressure;BME280_temperature;BME280_humidity;BME280_pressure;Samples;Min_cycle;Max_cycle;Signal;HPM_P1;HPM_P2
2023/04/22 00:01:08;;;;;;;5.28;4.03;;;13.10;99.90;;;;;;4977743;28;20081;-78
2023/04/22 00:03:34;;;;;;;4.47;3.58;;;13.10;99.90;;;;;;4975751;28;20154;-78
2023/04/22 00:05:59;;;;;;;6.28;4.50;;;13.00;99.90;;;;;;4975676;28;20035;-78
2023/04/22 00:08:25;;;;;;;4.40;4.00;;;13.00;99.90;;;;;;5000476;28;20399;-78
2023/04/22 00:10:51;;;;;;;4.97;4.07;;;13.10;99.90;;;;;;4975163;28;20072;-78
2023/04/22 00:13:16;;;;;;;4.40;3.88;;;13.10;99.90;;;;;;4994627;28;20456;-78
2023/04/22 00:15:42;;;;;;;6.63;4.45;;;13.10;99.90;;;;;;4958177;28;20487;-78
2023/04/22 00:18:12;;;;;;;6.18;4.82;;;13.10;99.90;;;;;;4986881;28;20030;-78
2023/04/22 00:20:44;;;;;;;4.90;4.40;;;13.00;99.90;;;;;;4978145;28;20035;-78
2023/04/22 00:23:11;;;;;;;6.35;4.80;;;13.00;99.90;;;;;;4983247;28;20464;-79
2023/04/22 00:25:38;;;;;;;5.07;4.53;;;13.00;99.90;;;;;;4981293;28;20086;-78
2023/04/22 00:28:04;;;;;;;4.45;4.00;;;12.90;99.90;;;;;;4982312;28;20027;-79
2023/04/22 00:30:30;;;;;;;6.13;4.63;;;12.80;99.90;;;;;;5003652;28;20027;-79
2023/04/22 00:32:56;;;;;;;6.93;4.55;;;12.80;99.90;;;;;;4994689;28;20062;-78
2023/04/22 00:35:22;;;;;;;4.60;4.10;;;12.80;99.90;;;;;;4965902;28;20575;-78
2023/04/22 00:37:47;;;;;;;5.22;4.25;;;12.80;99.90;;;;;;4959579;28;20042;-79
2023/04/22 00:40:13;;;;;;;5.43;4.30;;;12.80;99.90;;;;;;4958123;28;20026;-79
2023/04/22 00:42:42;;;;;;;7.00;4.18;;;12.80;99.90;;;;;;4974298;28;20119;-79
2023/04/22 00:45:14;;;;;;;4.82;4.22;;;12.80;99.90;;;;;;4989474;28;20137;-79
2023/04/22 00:47:40;;;;;;;4.35;3.92;;;12.80;99.90;;;;;;4975275;28;20058;-79
2023/04/22 00:50:07;;;;;;;8.20;4.38;;;12.80;99.90;;;;;;4984384;28;20043;-79
2023/04/22 00:52:32;;;;;;;5.25;3.95;;;12.80;99.90;;;;;;4977481;28;20029;-78
2023/04/22 00:54:59;;;;;;;4.45;4.05;;;12.80;99.90;;;;;;5000916;28;20031;-78
2023/04/22 00:57:25;;;;;;;5.28;3.97;;;12.80;99.90;;;;;;4991947;28;20027;-79
2023/04/22 00:59:52;;;;;;;4.82;3.85;;;12.80;99.90;;;;;;4994274;28;20038;-78
2023/04/22 01:02:18;;;;;;;4.60;3.72;;;12.80;99.90;;;;;;4976389;28;20034;-79
2023/04/22 01:04:44;;;;;;;5.10;4.05;;;12.80;99.90;;;;;;4970828;28;20027;-79
2023/04/22 01:07:11;;;;;;;5.55;4.43;;;12.80;99.90;;;;;;4981186;28;20058;-79
2023/04/22 01:09:38;;;;;;;4.45;3.65;;;12.80;99.90;;;;;;4996898;28;20055;-79
2023/04/22 01:12:05;;;;;;;4.90;3.97;;;12.80;99.90;;;;;;4996831;28;20479;-79
2023/04/22 01:14:30;;;;;;;4.65;4.15;;;12.70;99.90;;;;;;4993763;28;20058;-79
2023/04/22 01:16:56;;;;;;;6.22;4.32;;;12.70;99.90;;;;;;4976065;28;20447;-79
2023/04/22 01:19:23;;;;;;;5.85;4.35;;;12.60;99.90;;;;;;4990842;28;20073;-79
2023/04/22 01:21:50;;;;;;;6.53;4.47;;;12.50;99.90;;;;;;4995186;28;20027;-79
2023/04/22 01:24:16;;;;;;;4.85;4.15;;;12.50;99.90;;;;;;4995381;28;20110;-78
2023/04/22 01:26:42;;;;;;;5.30;4.43;;;12.50;99.90;;;;;;4992925;28;20027;-79
2023/04/22 01:29:08;;;;;;;4.55;4.15;;;12.50;99.90;;;;;;4990198;28;20058;-78
2023/04/22 01:31:34;;;;;;;5.63;4.47;;;12.50;99.90;;;;;;4981153;28;20035;-78
2023/04/22 01:34:00;;;;;;;5.40;4.40;;;12.50;99.90;;;;;;4979342;28;20035;-78
2023/04/22 01:36:27;;;;;;;7.63;5.05;;;12.50;99.90;;;;;;4979143;28;20057;-78
2023/04/22 01:38:52;;;;;;;6.38;5.15;;;12.50;99.90;;;;;;4961984;28;20471;-78
2023/04/22 01:41:18;;;;;;;6.13;5.50;;;12.50;99.90;;;;;;4968470;28;20031;-79
2023/04/22 01:43:44;;;;;;;5.93;5.30;;;12.50;99.90;;;;;;4985914;28;20026;-79
2023/04/22 01:46:10;;;;;;;5.70;5.10;;;12.50;99.90;;;;;;4990020;28;20035;-79
2023/04/22 01:48:37;;;;;;;6.47;5.20;;;12.50;99.90;;;;;;4971566;28;20055;-79
2023/04/22 01:51:03;;;;;;;8.18;5.60;;;12.50;99.90;;;;;;4979958;28;20062;-79
2023/04/22 01:53:29;;;;;;;6.05;5.45;;;12.40;99.90;;;;;;4980395;28;20038;-79
2023/04/22 01:55:54;;;;;;;7.18;5.47;;;12.50;99.90;;;;;;4978179;28;20117;-79
2023/04/22 01:58:20;;;;;;;7.55;5.75;;;12.50;99.90;;;;;;4976457;28;20089;-79
2023/04/22 02:00:46;;;;;;;5.85;5.22;;;12.50;99.90;;;;;;4977377;28;20035;-79
2023/04/22 02:03:12;;;;;;;6.97;6.28;;;12.50;99.90;;;;;;4976727;28;20054;-79
2023/04/22 02:05:38;;;;;;;7.60;5.93;;;12.40;99.90;;;;;;4981828;28;20030;-79
2023/04/22 02:08:04;;;;;;;10.68;6.63;;;12.40;99.90;;;;;;4981572;28;20054;-78
2023/04/22 02:10:30;;;;;;;8.23;6.95;;;12.40;99.90;;;;;;4976412;28;20475;-79
2023/04/22 02:12:56;;;;;;;7.95;6.63;;;12.40;99.90;;;;;;4996184;28;20050;-79
2023/04/22 02:15:22;;;;;;;7.82;6.55;;;12.30;99.90;;;;;;4975964;28;20049;-79
2023/04/22 02:17:48;;;;;;;8.50;7.03;;;12.30;99.90;;;;;;4964599;28;20488;-79
2023/04/22 02:20:14;;;;;;;8.68;7.25;;;12.30;99.90;;;;;;4978054;28;20034;-79
2023/04/22 02:22:42;;;;;;;9.23;6.95;;;12.30;99.90;;;;;;4973341;28;20038;-79
2023/04/22 02:25:09;;;;;;;8.50;7.50;;;12.40;99.90;;;;;;4999432;28;20388;-79
2023/04/22 02:27:35;;;;;;;9.02;7.90;;;12.40;99.90;;;;;;5000368;28;20058;-79
2023/04/22 02:30:01;;;;;;;10.20;8.32;;;12.40;99.90;;;;;;4981287;28;20027;-80
2023/04/22 02:32:27;;;;;;;8.55;7.43;;;12.30;99.90;;;;;;4997748;28;20015;-79
2023/04/22 02:34:52;;;;;;;10.00;7.65;;;12.30;99.90;;;;;;4990281;28;20443;-79
2023/04/22 02:37:19;;;;;;;8.88;7.97;;;12.30;99.90;;;;;;4998109;28;20079;-79
2023/04/22 02:39:45;;;;;;;9.20;7.88;;;12.30;99.90;;;;;;5015952;28;20090;-79
2023/04/22 02:42:10;;;;;;;10.95;7.88;;;12.30;99.90;;;;;;5000773;28;20026;-80
2023/04/22 02:44:36;;;;;;;10.23;7.50;;;12.30;99.90;;;;;;4996841;28;20053;-80
2023/04/22 02:47:02;;;;;;;8.63;7.40;;;12.30;99.90;;;;;;4995001;28;20095;-80
2023/04/22 02:49:28;;;;;;;10.90;8.70;;;12.30;99.90;;;;;;4997813;28;20034;-80
2023/04/22 02:51:54;;;;;;;9.10;8.20;;;12.20;99.90;;;;;;4998029;28;20103;-80
2023/04/22 02:54:19;;;;;;;11.00;7.80;;;12.20;99.90;;;;;;4991999;28;20039;-80
2023/04/22 02:56:46;;;;;;;9.68;8.32;;;12.20;99.90;;;;;;4977958;28;20031;-80
2023/04/22 02:59:12;;;;;;;9.80;8.50;;;12.20;99.90;;;;;;4976705;28;20037;-80
2023/04/22 03:01:37;;;;;;;9.32;8.18;;;12.20;99.90;;;;;;4977335;28;20022;-80
2023/04/22 03:04:03;;;;;;;11.30;8.52;;;12.20;99.90;;;;;;4960993;28;20502;-80
2023/04/22 03:06:29;;;;;;;11.88;9.98;;;12.20;99.90;;;;;;4992314;28;20456;-79
2023/04/22 03:08:55;;;;;;;11.30;9.10;;;12.20;99.90;;;;;;4976019;28;20051;-79
2023/04/22 03:11:21;;;;;;;12.40;10.05;;;12.20;99.90;;;;;;4990361;28;20086;-79
2023/04/22 03:13:46;;;;;;;11.32;9.65;;;12.20;99.90;;;;;;4989393;28;20031;-80
2023/04/22 03:16:12;;;;;;;10.55;9.27;;;12.20;99.90;;;;;;4992387;28;20041;-79
2023/04/22 03:18:37;;;;;;;11.10;9.90;;;12.20;99.90;;;;;;4981684;28;20039;-80
2023/04/22 03:21:03;;;;;;;11.85;10.10;;;12.20;99.90;;;;;;5002214;28;20015;-79
2023/04/22 03:23:29;;;;;;;12.43;9.88;;;12.10;99.90;;;;;;4999310;28;20031;-79
2023/04/22 03:25:54;;;;;;;12.90;10.43;;;12.10;99.90;;;;;;4997301;28;20086;-79
2023/04/22 03:28:20;;;;;;;10.48;9.38;;;12.20;99.90;;;;;;4983905;28;20011;-79
2023/04/22 03:30:47;;;;;;;12.90;10.45;;;12.10;99.90;;;;;;4999339;28;20055;-80
2023/04/22 03:33:13;;;;;;;13.00;10.75;;;12.10;99.90;;;;;;4979044;28;20039;-79
2023/04/22 03:35:38;;;;;;;13.88;10.00;;;12.10;99.90;;;;;;4973884;28;20098;-79
2023/04/22 03:38:04;;;;;;;11.07;9.98;;;12.10;99.90;;;;;;4996288;28;20054;-79
2023/04/22 03:40:30;;;;;;;11.77;10.25;;;12.10;99.90;;;;;;4976944;28;20116;-79
2023/04/22 03:42:55;;;;;;;14.88;11.25;;;12.20;99.90;;;;;;4978515;28;20046;-79
2023/04/22 03:45:21;;;;;;;11.32;10.13;;;12.10;99.90;;;;;;4992826;28;20035;-79
2023/04/22 03:47:47;;;;;;;11.85;9.73;;;12.20;99.90;;;;;;4995366;28;20128;-79
2023/04/22 03:50:12;;;;;;;11.32;10.13;;;12.10;99.90;;;;;;5010032;28;20391;-79
2023/04/22 03:52:38;;;;;;;13.20;10.20;;;12.20;99.90;;;;;;4989223;28;20070;-79
2023/04/22 03:55:04;;;;;;;14.98;11.40;;;12.20;99.90;;;;;;4989079;28;20026;-79
2023/04/22 03:57:29;;;;;;;12.15;10.95;;;12.10;99.90;;;;;;4981124;28;20035;-79
2023/04/22 03:59:55;;;;;;;13.05;11.70;;;12.10;99.90;;;;;;4971613;28;20031;-79
2023/04/22 04:02:21;;;;;;;13.15;11.75;;;12.10;99.90;;;;;;4979585;28;20094;-79
2023/04/22 04:04:46;;;;;;;12.35;10.85;;;12.10;99.90;;;;;;4994872;28;20031;-79
2023/04/22 04:07:13;;;;;;;13.40;11.88;;;12.10;99.90;;;;;;4996377;28;20011;-79
2023/04/22 04:09:38;;;;;;;14.52;12.38;;;12.10;99.90;;;;;;4996165;28;20055;-79
2023/04/22 04:12:04;;;;;;;17.90;14.05;;;12.10;99.90;;;;;;4992290;28;20046;-79
2023/04/22 04:14:29;;;;;;;16.38;14.20;;;12.00;99.90;;;;;;4988305;28;20279;-79
2023/04/22 04:16:55;;;;;;;17.52;14.30;;;11.90;99.90;;;;;;4987459;28;20027;-79
2023/04/22 04:19:21;;;;;;;17.50;15.07;;;11.90;99.90;;;;;;4996122;28;20053;-79
2023/04/22 04:21:47;;;;;;;17.08;14.43;;;11.80;99.90;;;;;;4995401;28;20408;-80
2023/04/22 04:24:13;;;;;;;16.63;13.30;;;11.80;99.90;;;;;;4991356;28;20039;-79
2023/04/22 04:26:38;;;;;;;14.63;12.90;;;11.80;99.90;;;;;;4980778;28;20092;-79
2023/04/22 04:29:05;;;;;;;17.35;13.90;;;11.90;99.90;;;;;;5006224;28;20034;-79
2023/04/22 04:31:31;;;;;;;17.60;14.52;;;11.90;99.90;;;;;;4971053;28;20027;-79
2023/04/22 04:33:57;;;;;;;17.08;14.35;;;11.90;99.90;;;;;;4983701;28;20035;-80
2023/04/22 04:36:28;;;;;;;16.63;13.90;;;11.90;99.90;;;;;;4988448;28;20367;-79
2023/04/22 04:38:54;;;;;;;16.88;14.45;;;11.90;99.90;;;;;;4990293;28;20027;-79
2023/04/22 04:41:20;;;;;;;17.30;14.00;;;11.90;99.90;;;;;;4986333;28;20464;-79
2023/04/22 04:43:46;;;;;;;17.17;13.55;;;12.00;99.90;;;;;;4989624;28;20069;-79
2023/04/22 04:46:13;;;;;;;16.77;14.15;;;11.90;99.90;;;;;;4991082;28;20035;-79
2023/04/22 04:48:41;;;;;;;17.02;14.30;;;12.00;99.90;;;;;;4977856;28;20039;-79
2023/04/22 04:51:07;;;;;;;19.40;14.80;;;12.00;99.90;;;;;;4991466;28;20054;-80
2023/04/22 04:53:32;;;;;;;19.02;13.77;;;12.00;99.90;;;;;;4990262;28;20098;-79
2023/04/22 04:55:58;;;;;;;17.80;14.73;;;12.00;99.90;;;;;;4988511;28;20034;-79
2023/04/22 04:58:24;;;;;;;19.45;15.20;;;12.00;99.90;;;;;;4990755;28;20034;-79
2023/04/22 05:00:50;;;;;;;16.45;14.45;;;12.10;99.90;;;;;;4992260;28;20039;-79
2023/04/22 05:03:15;;;;;;;15.18;13.48;;;12.10;99.90;;;;;;4988451;28;20046;-79
2023/04/22 05:05:41;;;;;;;18.13;14.27;;;12.20;99.90;;;;;;4985709;28;20132;-79
2023/04/22 05:08:07;;;;;;;17.02;15.18;;;12.20;99.90;;;;;;4987274;28;20039;-79
2023/04/22 05:10:32;;;;;;;18.17;15.00;;;12.20;99.90;;;;;;4989344;28;20106;-78
2023/04/22 05:12:58;;;;;;;16.85;14.35;;;12.20;99.90;;;;;;4992945;28;20038;-79
2023/04/22 05:15:24;;;;;;;19.33;14.55;;;12.20;99.90;;;;;;4995105;28;20031;-79
2023/04/22 05:17:49;;;;;;;19.15;15.50;;;12.20;99.90;;;;;;4977585;28;20043;-79
2023/04/22 05:20:15;;;;;;;17.98;14.65;;;12.20;99.90;;;;;;4982690;28;20058;-79
2023/04/22 05:22:42;;;;;;;17.52;13.85;;;12.20;99.90;;;;;;4992196;28;20034;-78
2023/04/22 05:25:08;;;;;;;19.90;15.10;;;12.20;99.90;;;;;;5008534;28;20106;-79
2023/04/22 05:27:34;;;;;;;16.15;13.50;;;12.30;99.90;;;;;;4971785;28;20066;-78
2023/04/22 05:30:00;;;;;;;16.05;13.30;;;12.30;99.90;;;;;;4989090;28;20031;-79
2023/04/22 05:32:25;;;;;;;19.30;15.68;;;12.30;99.90;;;;;;4987356;28;20041;-79
2023/04/22 05:34:51;;;;;;;18.10;15.35;;;12.30;99.90;;;;;;4980323;28;20057;-79
2023/04/22 05:37:17;;;;;;;16.48;14.65;;;12.30;99.90;;;;;;4978609;28;20055;-79
2023/04/22 05:39:42;;;;;;;18.08;14.48;;;12.30;99.90;;;;;;4976307;28;20031;-78
2023/04/22 05:42:08;;;;;;;18.27;15.85;;;12.30;99.90;;;;;;4982381;28;20030;-78
2023/04/22 05:44:34;;;;;;;17.40;14.35;;;12.40;99.90;;;;;;4966443;28;20090;-78
2023/04/22 05:46:59;;;;;;;21.05;16.33;;;12.30;99.90;;;;;;4979350;28;20031;-79
2023/04/22 05:49:25;;;;;;;16.25;14.27;;;12.40;99.90;;;;;;4980830;28;20034;-79
2023/04/22 05:51:51;;;;;;;18.60;15.10;;;12.40;99.90;;;;;;5003160;28;20110;-79
2023/04/22 05:54:16;;;;;;;17.63;15.25;;;12.40;99.90;;;;;;4973369;28;20039;-79
2023/04/22 05:56:42;;;;;;;17.75;15.60;;;12.40;99.90;;;;;;5003317;28;20027;-80
2023/04/22 05:59:08;;;;;;;17.77;13.20;;;12.50;99.90;;;;;;4965558;28;20472;-79
2023/04/22 06:01:35;;;;;;;19.80;15.68;;;12.50;99.90;;;;;;4966872;28;20031;-79
2023/04/22 06:04:01;;;;;;;18.48;14.95;;;12.50;99.90;;;;;;4981886;28;20499;-79
2023/04/22 06:06:29;;;;;;;16.63;14.50;;;12.50;99.90;;;;;;4970858;28;20035;-79
2023/04/22 06:08:55;;;;;;;18.35;15.23;;;12.50;99.90;;;;;;4991286;28;20093;-79
2023/04/22 06:11:20;;;;;;;20.95;16.25;;;12.60;99.90;;;;;;4989293;28;20034;-79
2023/04/22 06:13:46;;;;;;;16.70;13.93;;;12.50;99.90;;;;;;4968742;28;20110;-79
2023/04/22 06:16:12;;;;;;;19.13;15.85;;;12.50;99.90;;;;;;4985950;28;20038;-79
2023/04/22 06:18:37;;;;;;;20.48;15.63;;;12.60;99.90;;;;;;4984876;28;20118;-80
2023/04/22 06:21:03;;;;;;;17.88;15.40;;;12.60;99.90;;;;;;4966425;28;20387;-79
2023/04/22 06:23:29;;;;;;;20.27;16.20;;;12.60;99.90;;;;;;4963442;28;20046;-79
2023/04/22 06:25:55;;;;;;;19.13;16.25;;;12.60;99.90;;;;;;4978992;28;20031;-79
2023/04/22 06:28:21;;;;;;;18.33;15.80;;;12.70;99.90;;;;;;4978587;28;20058;-79
2023/04/22 06:30:46;;;;;;;23.60;18.88;;;12.70;99.90;;;;;;4979544;28;20042;-79
2023/04/22 06:33:12;;;;;;;21.25;18.80;;;12.60;99.90;;;;;;4979814;28;20077;-79
2023/04/22 06:35:38;;;;;;;23.85;18.13;;;12.50;99.90;;;;;;4982234;28;20031;-79
2023/04/22 06:38:03;;;;;;;21.52;17.13;;;12.40;99.90;;;;;;4995361;28;20031;-79
2023/04/22 06:40:29;;;;;;;23.70;18.13;;;12.50;99.90;;;;;;4976461;28;20035;-79
2023/04/22 06:42:55;;;;;;;24.65;18.85;;;12.50;99.90;;;;;;4989152;28;20061;-79
2023/04/22 06:45:20;;;;;;;22.90;18.67;;;12.60;99.90;;;;;;4968766;28;20039;-79
2023/04/22 06:47:46;;;;;;;23.85;18.90;;;12.60;99.90;;;;;;4983341;28;20042;-79
2023/04/22 06:50:12;;;;;;;23.20;18.35;;;12.70;99.90;;;;;;4981462;28;20154;-79
2023/04/22 06:52:37;;;;;;;22.38;18.85;;;12.80;99.90;;;;;;4976951;28;20476;-79
2023/04/22 06:55:03;;;;;;;24.40;19.73;;;12.80;99.90;;;;;;4959510;28;20050;-79
2023/04/22 06:57:29;;;;;;;23.25;20.38;;;12.90;99.90;;;;;;4959367;28;20031;-79
2023/04/22 06:59:55;;;;;;;24.42;19.50;;;12.90;99.90;;;;;;4991323;28;20157;-79
2023/04/22 07:02:21;;;;;;;27.40;20.83;;;12.90;99.90;;;;;;4959194;28;20077;-79
2023/04/22 07:04:47;;;;;;;23.67;19.13;;;13.00;99.90;;;;;;4976104;28;20347;-79
2023/04/22 07:07:12;;;;;;;23.63;18.17;;;13.00;99.90;;;;;;4975135;28;20063;-79
2023/04/22 07:09:38;;;;;;;22.30;16.60;;;12.90;99.90;;;;;;4975952;28;20057;-79
2023/04/22 07:12:04;;;;;;;23.10;18.67;;;13.00;99.90;;;;;;4976408;28;20375;-79
2023/04/22 07:14:31;;;;;;;23.35;17.67;;;13.20;99.90;;;;;;4958771;28;20081;-79
2023/04/22 07:16:56;;;;;;;22.50;18.25;;;13.30;99.90;;;;;;4991792;28;20122;-79
2023/04/22 07:19:22;;;;;;;19.65;16.15;;;13.50;99.90;;;;;;4975656;28;20110;-79
2023/04/22 07:21:48;;;;;;;20.85;15.85;;;13.60;99.90;;;;;;4976892;28;20062;-79
2023/04/22 07:24:14;;;;;;;18.88;15.00;;;13.60;99.90;;;;;;4975879;28;20462;-79
2023/04/22 07:26:41;;;;;;;17.60;14.23;;;13.70;99.90;;;;;;4976645;28;20061;-79
2023/04/22 07:29:07;;;;;;;15.82;13.77;;;13.80;99.90;;;;;;4977286;28;20038;-79
2023/04/22 07:31:34;;;;;;;17.88;14.85;;;14.00;99.90;;;;;;4991804;28;20026;-79
2023/04/22 07:34:00;;;;;;;16.25;14.00;;;14.10;99.90;;;;;;4975372;28;20043;-79
2023/04/22 07:36:26;;;;;;;18.17;13.82;;;14.10;99.90;;;;;;4959435;28;20622;-79
2023/04/22 07:38:51;;;;;;;19.08;13.90;;;14.20;99.90;;;;;;4992273;28;20054;-79
2023/04/22 07:41:17;;;;;;;16.58;13.18;;;14.20;99.90;;;;;;4976188;28;20050;-79
2023/04/22 07:43:43;;;;;;;16.90;13.85;;;14.40;99.90;;;;;;4976937;28;20109;-79
2023/04/22 07:46:08;;;;;;;16.88;12.70;;;14.50;99.90;;;;;;4975118;28;20042;-80
2023/04/22 07:48:35;;;;;;;17.75;13.55;;;14.60;99.90;;;;;;4960329;28;20472;-80
2023/04/22 07:51:01;;;;;;;18.55;12.55;;;14.70;99.90;;;;;;4975284;28;20023;-79
2023/04/22 07:53:27;;;;;;;16.42;12.95;;;14.80;99.90;;;;;;4976606;28;20506;-80
2023/04/22 07:55:52;;;;;;;15.85;12.93;;;14.90;99.90;;;;;;4986830;28;20054;-80
2023/04/22 07:58:18;;;;;;;13.63;11.65;;;14.90;99.90;;;;;;4969043;28;20031;-80
2023/04/22 08:00:43;;;;;;;14.38;11.77;;;15.00;99.90;;;;;;4967351;28;20110;-80
2023/04/22 08:03:09;;;;;;;13.25;11.63;;;15.10;99.90;;;;;;4981501;28;20041;-80
2023/04/22 08:05:35;;;;;;;14.23;12.18;;;15.20;99.90;;;;;;4978157;28;20102;-80
2023/04/22 08:08:00;;;;;;;15.60;11.75;;;15.30;99.90;;;;;;4969487;28;20055;-80
2023/04/22 08:10:26;;;;;;;14.48;11.35;;;15.40;99.90;;;;;;4985312;28;20058;-80
2023/04/22 08:12:52;;;;;;;13.85;10.52;;;15.60;99.90;;;;;;4991604;28;20105;-80
2023/04/22 08:15:18;;;;;;;12.20;10.90;;;15.60;99.90;;;;;;4982121;28;20050;-81
2023/04/22 08:17:43;;;;;;;12.40;10.70;;;15.80;99.90;;;;;;4968145;28;20491;-80
2023/04/22 08:20:09;;;;;;;12.68;10.18;;;15.80;99.90;;;;;;4984106;28;20055;-80
2023/04/22 08:22:35;;;;;;;12.13;9.60;;;15.90;99.90;;;;;;4965167;28;20027;-80
2023/04/22 08:25:01;;;;;;;11.23;9.07;;;16.10;99.90;;;;;;4984301;28;20459;-80
2023/04/22 08:27:27;;;;;;;9.63;8.63;;;16.20;99.90;;;;;;4985112;28;20053;-80
2023/04/22 08:29:52;;;;;;;11.82;8.98;;;16.30;99.90;;;;;;4965559;28;20034;-80
2023/04/22 08:32:21;;;;;;;10.88;8.68;;;16.30;99.90;;;;;;4980449;28;20027;-80
2023/04/22 08:34:46;;;;;;;10.10;7.97;;;16.30;99.90;;;;;;4979362;28;20039;-80
2023/04/22 08:37:13;;;;;;;10.48;8.82;;;16.40;99.90;;;;;;4979705;28;20059;-80
2023/04/22 08:39:39;;;;;;;9.20;8.13;;;16.40;99.90;;;;;;4978919;28;20031;-80
2023/04/22 08:42:05;;;;;;;11.50;8.60;;;16.40;99.90;;;;;;4978603;28;20379;-80
2023/04/22 08:44:31;;;;;;;11.65;9.60;;;16.40;99.90;;;;;;4961957;28;20046;-80
2023/04/22 08:46:58;;;;;;;10.55;8.88;;;16.50;99.90;;;;;;4964139;28;20069;-81
2023/04/22 08:49:25;;;;;;;11.77;8.20;;;16.60;99.90;;;;;;4980399;28;20027;-80
2023/04/22 08:51:53;;;;;;;9.15;7.80;;;16.70;99.90;;;;;;4978915;28;20093;-80
2023/04/22 08:54:18;;;;;;;11.50;7.88;;;16.70;99.90;;;;;;4978915;28;20082;-80
2023/04/22 08:56:44;;;;;;;9.05;8.15;;;16.80;99.90;;;;;;4979682;28;20460;-81
2023/04/22 08:59:11;;;;;;;9.52;8.00;;;16.90;99.90;;;;;;4978177;28;20053;-81
2023/04/22 09:01:41;;;;;;;8.75;7.78;;;16.90;99.90;;;;;;4979668;28;20034;-80
2023/04/22 09:04:09;;;;;;;9.85;8.05;;;17.00;99.90;;;;;;4979795;28;20092;-80
2023/04/22 09:06:36;;;;;;;13.65;9.27;;;17.00;99.90;;;;;;4979167;28;20464;-80
2023/04/22 09:09:02;;;;;;;9.40;8.25;;;17.10;99.90;;;;;;4996729;28;20046;-80
2023/04/22 09:11:30;;;;;;;10.93;7.88;;;17.20;99.90;;;;;;4977970;28;20460;-81
2023/04/22 09:13:55;;;;;;;8.02;7.10;;;17.40;99.90;;;;;;4977999;28;20098;-80
2023/04/22 09:16:21;;;;;;;10.00;7.47;;;17.50;99.90;;;;;;4978756;28;20468;-81
2023/04/22 09:18:48;;;;;;;7.80;6.90;;;17.60;99.90;;;;;;4976225;28;20073;-81
2023/04/22 09:21:14;;;;;;;9.63;7.38;;;17.60;99.90;;;;;;4977903;28;20043;-80
2023/04/22 09:23:51;;;;;;;6.63;6.03;;;17.70;99.90;;;;;;4991145;28;20615;-80
2023/04/22 09:26:24;;;;;;;6.45;5.80;;;17.80;99.50;;;;;;4976176;28;20035;-80
2023/04/22 09:28:59;;;;;;;7.45;5.75;;;18.00;98.40;;;;;;4980084;28;20027;-80
2023/04/22 09:31:27;;;;;;;7.75;5.57;;;18.00;97.80;;;;;;4978350;28;20030;-80
2023/04/22 09:33:59;;;;;;;9.35;6.82;;;18.10;98.20;;;;;;4978373;28;20507;-80
2023/04/22 09:36:27;;;;;;;7.85;5.85;;;18.20;98.00;;;;;;4977695;28;20471;-81
2023/04/22 09:38:54;;;;;;;6.95;6.10;;;18.10;97.80;;;;;;4994292;28;20035;-81
2023/04/22 09:41:38;;;;;;;9.10;6.03;;;18.10;97.50;;;;;;4977910;28;20031;-80
2023/04/22 09:44:08;;;;;;;7.40;6.13;;;18.20;97.70;;;;;;4977564;28;20113;-80
2023/04/22 09:46:34;;;;;;;6.95;5.97;;;18.40;97.80;;;;;;4977682;28;20033;-78
2023/04/22 09:49:00;;;;;;;9.18;5.45;;;18.40;96.90;;;;;;4993762;28;20026;-80
2023/04/22 09:51:27;;;;;;;6.85;5.57;;;18.50;96.80;;;;;;4977583;28;20105;-80
2023/04/22 09:54:11;;;;;;;7.43;5.97;;;18.60;96.60;;;;;;4961402;28;20039;-80
2023/04/22 09:56:50;;;;;;;7.35;4.97;;;18.70;96.10;;;;;;4978353;28;20027;-81
2023/04/22 09:59:21;;;;;;;6.15;4.70;;;18.80;95.80;;;;;;4977450;28;20037;-81
2023/04/22 10:01:48;;;;;;;6.03;5.37;;;18.80;95.80;;;;;;4977816;28;20027;-81
2023/04/22 10:04:14;;;;;;;7.70;5.53;;;18.80;96.30;;;;;;4976914;28;20285;-81
2023/04/22 10:06:41;;;;;;;8.52;5.93;;;18.80;96.20;;;;;;4960427;28;20037;-81
2023/04/22 10:09:08;;;;;;;8.02;5.35;;;18.80;96.20;;;;;;4977776;28;20055;-80
2023/04/22 10:11:34;;;;;;;7.07;6.38;;;18.90;95.90;;;;;;4976486;28;20035;-80
2023/04/22 10:14:00;;;;;;;6.60;5.93;;;18.90;95.50;;;;;;4978122;28;20039;-81
2023/04/22 10:16:30;;;;;;;7.88;6.05;;;18.80;95.80;;;;;;4976145;28;20027;-81
2023/04/22 10:18:58;;;;;;;6.13;5.10;;;18.80;96.00;;;;;;4977503;28;20046;-81
2023/04/22 10:21:26;;;;;;;6.30;5.70;;;18.80;95.40;;;;;;4976365;28;20173;-81
2023/04/22 10:23:51;;;;;;;6.45;4.97;;;18.90;95.70;;;;;;4977442;28;20062;-80
2023/04/22 10:26:48;;;;;;;5.55;4.97;;;19.00;94.80;;;;;;4976295;28;20110;-81
2023/04/22 10:29:16;;;;;;;5.60;5.00;;;19.10;95.00;;;;;;4977622;28;20114;-81
2023/04/22 10:31:44;;;;;;;6.95;5.25;;;19.20;95.00;;;;;;4977574;28;20579;-81
2023/04/22 10:34:12;;;;;;;7.82;5.30;;;19.30;94.70;;;;;;4978788;28;20130;-81
2023/04/22 10:37:06;;;;;;;6.13;5.20;;;19.40;94.30;;;;;;4979301;28;20033;-81
2023/04/22 10:39:32;;;;;;;7.68;5.47;;;19.50;93.50;;;;;;4975562;28;20121;-81
2023/04/22 10:42:14;;;;;;;6.63;4.57;;;19.60;93.00;;;;;;4977221;28;20467;-79
2023/04/22 10:44:59;;;;;;;6.37;4.47;;;19.80;93.90;;;;;;4975613;28;20047;-78
2023/04/22 10:47:27;;;;;;;5.68;4.25;;;19.80;93.10;;;;;;4976989;28;20023;-79
2023/04/22 10:50:17;;;;;;;6.93;4.53;;;19.90;92.50;;;;;;4975896;28;20121;-80
2023/04/22 10:52:50;;;;;;;5.45;4.00;;;20.00;92.10;;;;;;4976545;28;20041;-80
2023/04/22 10:55:16;;;;;;;6.82;3.95;;;20.20;92.30;;;;;;4977229;28;20023;-80
2023/04/22 10:57:44;;;;;;;4.32;3.80;;;20.30;92.30;;;;;;4977121;28;20027;-80
2023/04/22 11:00:21;;;;;;;7.15;3.95;;;20.40;91.40;;;;;;4991868;28;20031;-80
2023/04/22 11:02:51;;;;;;;7.65;4.63;;;20.50;91.60;;;;;;4977341;28;20034;-80
2023/04/22 11:05:18;;;;;;;4.63;4.22;;;20.70;92.10;;;;;;4975795;28;20117;-80
2023/04/22 11:07:45;;;;;;;6.22;4.50;;;20.60;91.40;;;;;;4975368;28;20086;-80
2023/04/22 11:10:28;;;;;;;6.03;4.20;;;20.70;91.40;;;;;;4976579;28;20112;-80
2023/04/22 11:12:54;;;;;;;5.13;4.63;;;20.80;91.60;;;;;;4975447;28;20133;-80
2023/04/22 11:15:23;;;;;;;5.93;4.80;;;20.80;91.00;;;;;;4976135;28;20027;-80
2023/04/22 11:17:51;;;;;;;8.52;4.70;;;20.70;90.60;;;;;;4976962;28;20034;-80
2023/04/22 11:20:17;;;;;;;6.35;4.97;;;20.50;90.90;;;;;;4977107;28;20033;-80
2023/04/22 11:22:46;;;;;;;6.65;5.05;;;20.30;91.00;;;;;;4976371;28;20038;-80
2023/04/22 11:25:12;;;;;;;6.95;5.05;;;20.10;91.20;;;;;;4975935;28;20065;-80
2023/04/22 11:27:39;;;;;;;9.68;5.55;;;19.90;91.60;;;;;;4976363;28;20035;-80
2023/04/22 11:30:16;;;;;;;7.90;5.50;;;19.70;91.80;;;;;;4975050;28;20042;-80
2023/04/22 11:32:44;;;;;;;6.80;4.85;;;19.60;92.10;;;;;;4975246;28;20039;-79
2023/04/22 11:35:13;;;;;;;5.88;5.10;;;19.50;92.70;;;;;;4975685;28;20049;-79
2023/04/22 11:37:40;;;;;;;7.90;5.15;;;19.40;92.20;;;;;;4976626;28;20547;-79
2023/04/22 11:40:09;;;;;;;6.18;5.10;;;19.30;92.70;;;;;;4960764;28;20031;-79
2023/04/22 11:42:35;;;;;;;7.95;4.57;;;19.20;92.30;;;;;;4964856;28;20057;-80
2023/04/22 11:45:01;;;;;;;6.35;4.57;;;19.10;91.90;;;;;;4978480;28;20099;-80
2023/04/22 11:47:30;;;;;;;6.88;5.28;;;19.00;92.40;;;;;;4975686;28;20054;-80
2023/04/22 11:50:03;;;;;;;7.80;4.95;;;18.90;92.30;;;;;;4974865;28;20110;-80
2023/04/22 11:52:52;;;;;;;7.25;5.72;;;18.90;93.30;;;;;;4974827;28;20035;-80
2023/04/22 11:55:26;;;;;;;8.98;5.25;;;18.80;93.10;;;;;;4974225;28;20050;-79
2023/04/22 11:58:06;;;;;;;6.18;5.03;;;18.80;92.90;;;;;;4977703;28;20034;-79
2023/04/22 12:00:45;;;;;;;6.18;5.10;;;18.80;92.90;;;;;;4981783;28;20066;-78
2023/04/22 12:03:13;;;;;;;5.95;5.10;;;18.80;93.00;;;;;;4985218;28;20094;-78
2023/04/22 12:05:52;;;;;;;6.85;4.63;;;18.80;93.00;;;;;;4985385;28;20031;-79
2023/04/22 12:08:40;;;;;;;5.78;4.85;;;18.70;93.20;;;;;;4982604;28;20454;-78
2023/04/22 12:11:09;;;;;;;6.18;4.35;;;18.70;93.30;;;;;;4982023;28;20043;-78
2023/04/22 12:13:39;;;;;;;5.35;4.15;;;18.60;93.60;;;;;;4979730;28;20070;-78
2023/04/22 12:16:13;;;;;;;6.97;4.00;;;18.50;93.80;;;;;;4979119;28;20073;-79
2023/04/22 12:18:49;;;;;;;6.70;4.65;;;18.50;93.90;;;;;;4978613;28;20037;-78
2023/04/22 12:21:18;;;;;;;6.70;4.63;;;18.50;94.10;;;;;;4978186;28;20023;-78
2023/04/22 12:23:46;;;;;;;7.35;5.15;;;18.40;94.40;;;;;;4979820;28;20389;-78
2023/04/22 12:26:13;;;;;;;7.80;4.80;;;18.40;94.90;;;;;;4979680;28;20542;-77
2023/04/22 12:28:40;;;;;;;8.88;5.45;;;18.30;95.00;;;;;;4980506;28;20037;-77
2023/04/22 12:31:06;;;;;;;6.57;5.47;;;18.20;95.30;;;;;;4982824;28;20545;-77
2023/04/22 12:33:32;;;;;;;8.05;5.28;;;18.20;95.50;;;;;;4981364;28;20043;-78
2023/04/22 12:35:58;;;;;;;8.40;5.47;;;18.30;95.60;;;;;;4997143;28;20436;-77
2023/04/22 12:38:23;;;;;;;7.97;5.25;;;18.20;95.80;;;;;;4977431;28;20031;-78